EDT,Max TemperatureF,Mean TemperatureF,Min TemperatureF,Max Dew PointF,MeanDew PointF,Min DewpointF,Max Humidity, Mean Humidity, Min Humidity, Max Sea Level PressureIn, Mean Sea Level PressureIn, Min Sea Level PressureIn, Max VisibilityMiles, Mean VisibilityMiles, Min VisibilityMiles, Max Wind SpeedMPH, Mean Wind SpeedMPH, Max Gust SpeedMPH,PrecipitationIn, CloudCover, Events, WindDirDegrees
2012-10-1,69,54,39,48,42,37,93,78,33,29.95,29.88,29.80,10,9,0,10,3,,0.00,1,Fog,252
2012-10-2,59,52,46,48,46,43,88,79,59,29.97,29.92,29.86,10,10,10,13,6,17,0.00,5,,14
2012-10-3,69,55,41,50,44,39,94,79,33,29.99,29.97,29.94,10,7,0,8,4,,0.00,4,Fog,209
2012-10-4,71,53,35,52,40,30,93,74,32,29.99,29.90,29.74,10,7,0,21,4,28,0.00,2,Fog,221
2012-10-5,44,41,38,29,26,21,64,55,45,29.87,29.86,29.83,10,10,10,22,12,29,0.00,6,,247
2012-10-6,39,36,33,34,30,27,87,80,67,30.10,29.95,29.83,10,9,3,18,12,25,0.00,6,Snow,309
2012-10-7,48,40,32,29,23,14,81,60,25,30.09,30.02,29.89,10,10,10,15,8,22,0.00,4,,256
2012-10-8,55,42,28,39,23,17,64,51,29,29.94,29.84,29.67,10,10,10,22,10,31,0.00,2,,192
2012-10-9,51,42,34,41,33,28,91,64,41,29.72,29.67,29.64,10,10,7,22,14,30,0.00,5,Rain,219
2012-10-10,39,34,29,32,28,21,92,79,52,29.99,29.83,29.70,10,10,3,18,7,26,0.00,5,Snow,265
2012-10-11,42,36,31,34,28,23,95,78,53,30.21,29.98,29.84,10,8,2,20,7,26,0.00,6,Snow,248
2012-10-12,46,35,24,45,25,19,93,71,37,30.40,30.29,30.21,10,10,10,13,6,,0.00,1,,258
2012-10-13,46,40,35,45,37,28,93,86,70,30.21,29.98,29.74,10,9,2,21,9,26,0.00,6,Rain,207
2012-10-14,46,44,41,45,41,37,93,89,81,29.79,29.69,29.55,10,8,2,28,9,37,0.00,8,Rain,2
2012-10-15,44,37,30,37,33,27,89,81,57,29.91,29.77,29.63,10,9,3,22,16,31,0.00,6,Rain,347
2012-10-16,50,40,30,46,37,27,93,88,82,29.88,29.74,29.55,10,9,4,18,6,24,0.00,5,Rain,188
2012-10-17,62,54,45,52,46,37,94,84,54,29.54,29.42,29.32,10,9,1,21,9,26,0.00,3,Rain,162
2012-10-18,55,48,42,52,48,40,94,88,81,29.49,29.29,29.14,10,9,5,21,13,37,0.00,8,Rain,152
2012-10-19,48,44,41,43,40,37,93,86,66,29.63,29.56,29.49,10,10,5,10,7,16,0.00,7,Rain,87
2012-10-20,55,46,37,45,40,34,93,83,51,29.83,29.70,29.62,10,9,2,14,5,21,0.00,4,Rain,26
2012-10-21,59,46,32,41,35,30,94,80,45,29.97,29.91,29.83,10,10,3,13,2,,0.00,1,,195
2012-10-22,57,50,42,45,42,37,93,83,58,30.05,30.01,29.97,10,9,5,13,5,17,0.00,5,,42
2012-10-23,55,52,48,49,47,45,94,86,67,30.03,29.97,29.91,10,8,2,16,10,22,0.00,8,Rain-Thunderstorm,93
2012-10-24,59,55,51,57,53,49,94,92,88,29.91,29.86,29.74,5,2,0,17,13,23,0.00,8,Fog-Rain,170
2012-10-25,62,50,38,61,53,33,94,89,80,29.79,29.64,29.46,10,5,2,20,13,29,1.05,8,Rain-Hail-Thunderstorm,206
2012-10-26,39,36,32,33,27,22,87,71,52,30.27,30.07,29.82,10,10,10,15,10,24,0.00,7,Rain,265
2012-10-27,37,30,24,23,21,12,86,66,36,30.32,30.27,30.24,10,10,10,12,3,16,0.00,3,,278
2012-10-28,41,32,24,25,22,20,86,75,45,30.36,30.33,30.32,10,10,10,10,2,,0.00,2,,350
2012-10-29,42,32,22,28,24,20,93,77,49,30.36,30.31,30.19,10,10,10,22,5,30,0.00,2,,2
2012-10-30,38,35,32,30,26,19,93,70,49,30.34,30.04,29.86,10,8,1,31,23,41,0.00,6,Snow,10
2012-10-31,33,32,31,32,30,27,93,90,83,29.85,29.79,29.75,10,4,1,24,19,37,0.00,8,Rain-Snow,347